sensor_id;sensor_type;location;lat;lon;timestamp;P1;durP1;ratioP1;P2;durP2;ratioP2
65717;SDS011;52445;52.466;-1.016;2024-01-07T00:00:08;10.60;;;3.95;;
65717;SDS011;52445;52.466;-1.016;2024-01-07T00:02:35;9.80;;;3.72;;
65717;SDS011;52445;52.466;-1.016;2024-01-07T00:05:02;11.20;;;4.35;;
65717;SDS011;52445;52.466;-1.016;2024-01-07T00:07:29;10.98;;;3.50;;
65717;SDS011;52445;52.466;-1.016;2024-01-07T00:09:56;12.02;;;4.65;;
65717;SDS011;52445;52.466;-1.016;2024-01-07T00:12:23;9.93;;;4.05;;
65717;SDS011;52445;52.466;-1.016;2024-01-07T00:14:51;10.90;;;3.92;;
65717;SDS011;52445;52.466;-1.016;2024-01-07T00:17:17;10.18;;;4.30;;
65717;SDS011;52445;52.466;-1.016;2024-01-07T00:19:44;9.45;;;4.55;;
65717;SDS011;52445;52.466;-1.016;2024-01-07T00:22:11;9.68;;;3.83;;
65717;SDS011;52445;52.466;-1.016;2024-01-07T00:24:38;12.52;;;5.78;;
65717;SDS011;52445;52.466;-1.016;2024-01-07T00:27:04;11.00;;;5.10;;
65717;SDS011;52445;52.466;-1.016;2024-01-07T00:29:31;8.68;;;3.55;;
65717;SDS011;52445;52.466;-1.016;2024-01-07T00:32:01;10.27;;;4.53;;
65717;SDS011;52445;52.466;-1.016;2024-01-07T00:34:28;4.07;;;2.22;;
65717;SDS011;52445;52.466;-1.016;2024-01-07T00:36:56;9.60;;;5.25;;
65717;SDS011;52445;52.466;-1.016;2024-01-07T00:39:23;12.75;;;5.30;;
65717;SDS011;52445;52.466;-1.016;2024-01-07T00:41:52;16.17;;;5.03;;
65717;SDS011;52445;52.466;-1.016;2024-01-07T00:44:18;17.10;;;6.10;;
65717;SDS011;52445;52.466;-1.016;2024-01-07T00:46:45;10.23;;;4.03;;
65717;SDS011;52445;52.466;-1.016;2024-01-07T00:49:14;12.38;;;4.55;;
65717;SDS011;52445;52.466;-1.016;2024-01-07T00:51:42;11.77;;;4.95;;
65717;SDS011;52445;52.466;-1.016;2024-01-07T00:54:08;11.70;;;4.13;;
65717;SDS011;52445;52.466;-1.016;2024-01-07T00:56:35;8.00;;;2.95;;
65717;SDS011;52445;52.466;-1.016;2024-01-07T00:59:01;11.23;;;4.82;;
65717;SDS011;52445;52.466;-1.016;2024-01-07T01:01:28;10.18;;;4.53;;
65717;SDS011;52445;52.466;-1.016;2024-01-07T01:03:55;10.50;;;2.13;;
65717;SDS011;52445;52.466;-1.016;2024-01-07T01:06:24;15.27;;;4.85;;
65717;SDS011;52445;52.466;-1.016;2024-01-07T01:08:51;16.50;;;4.30;;
65717;SDS011;52445;52.466;-1.016;2024-01-07T01:11:20;5.47;;;3.13;;
65717;SDS011;52445;52.466;-1.016;2024-01-07T01:13:46;13.70;;;4.88;;
65717;SDS011;52445;52.466;-1.016;2024-01-07T01:16:13;10.88;;;4.22;;
65717;SDS011;52445;52.466;-1.016;2024-01-07T01:18:41;10.60;;;4.28;;
65717;SDS011;52445;52.466;-1.016;2024-01-07T01:21:09;13.32;;;3.55;;
65717;SDS011;52445;52.466;-1.016;2024-01-07T01:23:35;11.52;;;4.43;;
65717;SDS011;52445;52.466;-1.016;2024-01-07T01:26:02;10.63;;;3.80;;
65717;SDS011;52445;52.466;-1.016;2024-01-07T01:28:29;11.25;;;3.75;;
65717;SDS011;52445;52.466;-1.016;2024-01-07T01:30:56;6.47;;;3.20;;
65717;SDS011;52445;52.466;-1.016;2024-01-07T01:33:23;9.80;;;3.28;;
65717;SDS011;52445;52.466;-1.016;2024-01-07T01:35:50;11.18;;;4.70;;
65717;SDS011;52445;52.466;-1.016;2024-01-07T01:38:16;11.98;;;3.72;;
65717;SDS011;52445;52.466;-1.016;2024-01-07T01:40:54;15.40;;;4.95;;
65717;SDS011;52445;52.466;-1.016;2024-01-07T01:43:25;10.88;;;3.92;;
65717;SDS011;52445;52.466;-1.016;2024-01-07T01:45:53;11.05;;;4.25;;
65717;SDS011;52445;52.466;-1.016;2024-01-07T01:48:22;8.57;;;3.47;;
65717;SDS011;52445;52.466;-1.016;2024-01-07T01:50:50;9.85;;;4.30;;
65717;SDS011;52445;52.466;-1.016;2024-01-07T01:53:20;7.10;;;3.03;;
65717;SDS011;52445;52.466;-1.016;2024-01-07T01:55:57;21.05;;;5.07;;
65717;SDS011;52445;52.466;-1.016;2024-01-07T01:58:26;8.40;;;3.63;;
65717;SDS011;52445;52.466;-1.016;2024-01-07T02:00:55;9.88;;;3.58;;
65717;SDS011;52445;52.466;-1.016;2024-01-07T02:03:22;10.50;;;3.75;;
65717;SDS011;52445;52.466;-1.016;2024-01-07T02:05:52;6.13;;;2.20;;
65717;SDS011;52445;52.466;-1.016;2024-01-07T02:08:19;11.27;;;2.63;;
65717;SDS011;52445;52.466;-1.016;2024-01-07T02:10:47;9.68;;;4.65;;
65717;SDS011;52445;52.466;-1.016;2024-01-07T02:13:13;5.97;;;3.03;;
65717;SDS011;52445;52.466;-1.016;2024-01-07T02:15:40;5.60;;;2.58;;
65717;SDS011;52445;52.466;-1.016;2024-01-07T02:18:10;8.32;;;2.92;;
65717;SDS011;52445;52.466;-1.016;2024-01-07T02:20:37;6.60;;;2.83;;
65717;SDS011;52445;52.466;-1.016;2024-01-07T02:23:03;5.60;;;2.70;;
65717;SDS011;52445;52.466;-1.016;2024-01-07T02:25:38;6.72;;;2.72;;
65717;SDS011;52445;52.466;-1.016;2024-01-07T02:28:05;12.30;;;2.85;;
65717;SDS011;52445;52.466;-1.016;2024-01-07T02:30:32;11.60;;;3.42;;
65717;SDS011;52445;52.466;-1.016;2024-01-07T02:33:01;7.55;;;3.53;;
65717;SDS011;52445;52.466;-1.016;2024-01-07T02:35:29;6.50;;;1.80;;
65717;SDS011;52445;52.466;-1.016;2024-01-07T02:37:56;6.57;;;2.72;;
65717;SDS011;52445;52.466;-1.016;2024-01-07T02:40:23;8.63;;;3.58;;
65717;SDS011;52445;52.466;-1.016;2024-01-07T02:42:50;8.25;;;3.33;;
65717;SDS011;52445;52.466;-1.016;2024-01-07T02:45:16;8.27;;;2.63;;
65717;SDS011;52445;52.466;-1.016;2024-01-07T02:47:43;5.88;;;2.72;;
65717;SDS011;52445;52.466;-1.016;2024-01-07T02:50:10;6.90;;;2.67;;
65717;SDS011;52445;52.466;-1.016;2024-01-07T02:52:37;7.60;;;2.90;;
65717;SDS011;52445;52.466;-1.016;2024-01-07T02:55:06;10.00;;;3.40;;
65717;SDS011;52445;52.466;-1.016;2024-01-07T02:57:33;7.88;;;3.63;;
65717;SDS011;52445;52.466;-1.016;2024-01-07T03:00:00;9.88;;;2.65;;
65717;SDS011;52445;52.466;-1.016;2024-01-07T03:02:27;7.18;;;2.92;;
65717;SDS011;52445;52.466;-1.016;2024-01-07T03:04:53;6.43;;;3.72;;
65717;SDS011;52445;52.466;-1.016;2024-01-07T03:07:20;6.13;;;2.30;;
65717;SDS011;52445;52.466;-1.016;2024-01-07T03:09:48;5.97;;;2.22;;
65717;SDS011;52445;52.466;-1.016;2024-01-07T03:12:15;4.57;;;2.05;;
65717;SDS011;52445;52.466;-1.016;2024-01-07T03:14:42;7.63;;;2.90;;
65717;SDS011;52445;52.466;-1.016;2024-01-07T03:17:10;7.80;;;2.80;;
65717;SDS011;52445;52.466;-1.016;2024-01-07T03:19:38;10.15;;;2.55;;
65717;SDS011;52445;52.466;-1.016;2024-01-07T03:22:05;4.10;;;1.95;;
65717;SDS011;52445;52.466;-1.016;2024-01-07T03:24:33;8.35;;;3.38;;
65717;SDS011;52445;52.466;-1.016;2024-01-07T03:27:02;4.80;;;1.95;;
65717;SDS011;52445;52.466;-1.016;2024-01-07T03:29:30;5.60;;;1.63;;
65717;SDS011;52445;52.466;-1.016;2024-01-07T03:31:57;4.43;;;1.48;;
65717;SDS011;52445;52.466;-1.016;2024-01-07T03:34:23;3.78;;;2.00;;
65717;SDS011;52445;52.466;-1.016;2024-01-07T03:36:50;3.55;;;1.58;;
65717;SDS011;52445;52.466;-1.016;2024-01-07T03:39:18;4.63;;;2.17;;
65717;SDS011;52445;52.466;-1.016;2024-01-07T03:41:45;5.90;;;2.15;;
65717;SDS011;52445;52.466;-1.016;2024-01-07T03:44:12;4.45;;;2.10;;
65717;SDS011;52445;52.466;-1.016;2024-01-07T03:46:41;4.70;;;1.23;;
65717;SDS011;52445;52.466;-1.016;2024-01-07T03:49:07;8.13;;;2.13;;
65717;SDS011;52445;52.466;-1.016;2024-01-07T03:51:34;4.25;;;1.48;;
65717;SDS011;52445;52.466;-1.016;2024-01-07T03:54:01;5.65;;;1.92;;
65717;SDS011;52445;52.466;-1.016;2024-01-07T03:56:27;5.93;;;2.33;;
65717;SDS011;52445;52.466;-1.016;2024-01-07T03:58:54;4.38;;;2.05;;
65717;SDS011;52445;52.466;-1.016;2024-01-07T04:01:21;4.72;;;1.75;;
65717;SDS011;52445;52.466;-1.016;2024-01-07T04:03:48;7.28;;;1.65;;
65717;SDS011;52445;52.466;-1.016;2024-01-07T04:06:15;2.45;;;1.02;;
65717;SDS011;52445;52.466;-1.016;2024-01-07T04:08:42;2.33;;;0.85;;
65717;SDS011;52445;52.466;-1.016;2024-01-07T04:11:10;5.15;;;1.30;;
65717;SDS011;52445;52.466;-1.016;2024-01-07T04:13:36;5.68;;;2.28;;
65717;SDS011;52445;52.466;-1.016;2024-01-07T04:16:03;3.97;;;1.63;;
65717;SDS011;52445;52.466;-1.016;2024-01-07T04:18:31;2.80;;;1.20;;
65717;SDS011;52445;52.466;-1.016;2024-01-07T04:20:58;9.43;;;2.03;;
65717;SDS011;52445;52.466;-1.016;2024-01-07T04:23:28;5.80;;;1.67;;
65717;SDS011;52445;52.466;-1.016;2024-01-07T04:25:55;2.92;;;1.50;;
65717;SDS011;52445;52.466;-1.016;2024-01-07T04:28:21;3.53;;;1.40;;
65717;SDS011;52445;52.466;-1.016;2024-01-07T04:30:48;8.25;;;1.52;;
65717;SDS011;52445;52.466;-1.016;2024-01-07T04:33:15;2.38;;;1.73;;
65717;SDS011;52445;52.466;-1.016;2024-01-07T04:35:42;2.97;;;1.23;;
65717;SDS011;52445;52.466;-1.016;2024-01-07T04:38:08;3.85;;;1.15;;
65717;SDS011;52445;52.466;-1.016;2024-01-07T04:40:35;2.63;;;0.93;;
65717;SDS011;52445;52.466;-1.016;2024-01-07T04:43:03;3.83;;;1.10;;
65717;SDS011;52445;52.466;-1.016;2024-01-07T04:45:30;5.20;;;0.98;;
65717;SDS011;52445;52.466;-1.016;2024-01-07T04:47:56;5.38;;;1.63;;
65717;SDS011;52445;52.466;-1.016;2024-01-07T04:50:23;8.02;;;1.15;;
65717;SDS011;52445;52.466;-1.016;2024-01-07T04:52:50;3.67;;;1.48;;
65717;SDS011;52445;52.466;-1.016;2024-01-07T04:55:16;1.42;;;0.80;;
65717;SDS011;52445;52.466;-1.016;2024-01-07T04:57:43;2.10;;;0.73;;
65717;SDS011;52445;52.466;-1.016;2024-01-07T05:00:10;2.45;;;1.73;;
65717;SDS011;52445;52.466;-1.016;2024-01-07T05:02:37;1.65;;;0.95;;
65717;SDS011;52445;52.466;-1.016;2024-01-07T05:05:04;5.85;;;1.42;;
65717;SDS011;52445;52.466;-1.016;2024-01-07T05:07:31;2.38;;;1.25;;
65717;SDS011;52445;52.466;-1.016;2024-01-07T05:09:59;2.88;;;1.23;;
65717;SDS011;52445;52.466;-1.016;2024-01-07T05:12:27;5.15;;;1.45;;
65717;SDS011;52445;52.466;-1.016;2024-01-07T05:14:54;3.97;;;0.80;;
65717;SDS011;52445;52.466;-1.016;2024-01-07T05:17:21;1.67;;;0.47;;
65717;SDS011;52445;52.466;-1.016;2024-01-07T05:19:48;1.52;;;0.65;;
65717;SDS011;52445;52.466;-1.016;2024-01-07T05:22:16;3.58;;;0.88;;
65717;SDS011;52445;52.466;-1.016;2024-01-07T05:24:43;2.03;;;0.38;;
65717;SDS011;52445;52.466;-1.016;2024-01-07T05:27:09;4.65;;;0.70;;
65717;SDS011;52445;52.466;-1.016;2024-01-07T05:29:36;2.47;;;0.57;;
65717;SDS011;52445;52.466;-1.016;2024-01-07T05:32:03;3.13;;;0.80;;
65717;SDS011;52445;52.466;-1.016;2024-01-07T05:34:30;1.92;;;0.63;;
65717;SDS011;52445;52.466;-1.016;2024-01-07T05:36:58;2.20;;;0.73;;
65717;SDS011;52445;52.466;-1.016;2024-01-07T05:39:26;4.88;;;0.60;;
65717;SDS011;52445;52.466;-1.016;2024-01-07T05:41:53;2.03;;;1.13;;
65717;SDS011;52445;52.466;-1.016;2024-01-07T05:44:19;2.80;;;2.03;;
65717;SDS011;52445;52.466;-1.016;2024-01-07T05:46:46;2.72;;;0.80;;
65717;SDS011;52445;52.466;-1.016;2024-01-07T05:49:12;0.17;;;0.10;;
65717;SDS011;52445;52.466;-1.016;2024-01-07T05:51:40;10.00;;;1.67;;
65717;SDS011;52445;52.466;-1.016;2024-01-07T05:54:07;1.90;;;1.02;;
65717;SDS011;52445;52.466;-1.016;2024-01-07T05:56:41;1.92;;;0.60;;
65717;SDS011;52445;52.466;-1.016;2024-01-07T05:59:08;4.07;;;0.55;;
65717;SDS011;52445;52.466;-1.016;2024-01-07T06:01:35;2.80;;;2.08;;
65717;SDS011;52445;52.466;-1.016;2024-01-07T06:04:02;1.42;;;1.25;;
65717;SDS011;52445;52.466;-1.016;2024-01-07T06:06:31;1.25;;;0.65;;
65717;SDS011;52445;52.466;-1.016;2024-01-07T06:09:00;1.55;;;1.42;;
65717;SDS011;52445;52.466;-1.016;2024-01-07T06:11:28;1.50;;;0.43;;
65717;SDS011;52445;52.466;-1.016;2024-01-07T06:13:54;1.77;;;0.70;;
65717;SDS011;52445;52.466;-1.016;2024-01-07T06:16:21;2.33;;;1.13;;
65717;SDS011;52445;52.466;-1.016;2024-01-07T06:18:48;2.50;;;1.25;;
65717;SDS011;52445;52.466;-1.016;2024-01-07T06:21:15;2.47;;;1.60;;
65717;SDS011;52445;52.466;-1.016;2024-01-07T06:23:41;2.38;;;1.17;;
65717;SDS011;52445;52.466;-1.016;2024-01-07T06:26:08;5.30;;;1.05;;
65717;SDS011;52445;52.466;-1.016;2024-01-07T06:28:35;6.80;;;1.05;;
65717;SDS011;52445;52.466;-1.016;2024-01-07T06:31:02;3.05;;;1.55;;
65717;SDS011;52445;52.466;-1.016;2024-01-07T06:33:29;1.35;;;0.77;;
65717;SDS011;52445;52.466;-1.016;2024-01-07T06:35:56;1.33;;;1.02;;
65717;SDS011;52445;52.466;-1.016;2024-01-07T06:38:23;0.70;;;0.60;;
65717;SDS011;52445;52.466;-1.016;2024-01-07T06:40:50;8.40;;;3.65;;
65717;SDS011;52445;52.466;-1.016;2024-01-07T06:43:17;1.55;;;0.93;;
65717;SDS011;52445;52.466;-1.016;2024-01-07T06:45:44;4.40;;;0.88;;
65717;SDS011;52445;52.466;-1.016;2024-01-07T06:48:10;1.77;;;0.98;;
65717;SDS011;52445;52.466;-1.016;2024-01-07T06:50:37;2.67;;;0.80;;
65717;SDS011;52445;52.466;-1.016;2024-01-07T06:53:04;2.17;;;0.68;;
65717;SDS011;52445;52.466;-1.016;2024-01-07T06:55:30;1.33;;;1.02;;
65717;SDS011;52445;52.466;-1.016;2024-01-07T06:57:57;1.00;;;0.43;;
65717;SDS011;52445;52.466;-1.016;2024-01-07T07:00:24;2.53;;;1.23;;
65717;SDS011;52445;52.466;-1.016;2024-01-07T07:02:51;2.90;;;1.10;;
65717;SDS011;52445;52.466;-1.016;2024-01-07T07:05:18;5.88;;;1.38;;
65717;SDS011;52445;52.466;-1.016;2024-01-07T07:07:44;3.28;;;1.42;;
65717;SDS011;52445;52.466;-1.016;2024-01-07T07:10:11;4.00;;;1.52;;
65717;SDS011;52445;52.466;-1.016;2024-01-07T07:12:38;6.07;;;2.13;;
65717;SDS011;52445;52.466;-1.016;2024-01-07T07:15:05;6.82;;;1.13;;
65717;SDS011;52445;52.466;-1.016;2024-01-07T07:17:32;2.83;;;0.57;;
65717;SDS011;52445;52.466;-1.016;2024-01-07T07:19:59;1.67;;;0.55;;
65717;SDS011;52445;52.466;-1.016;2024-01-07T07:22:25;2.05;;;1.33;;
65717;SDS011;52445;52.466;-1.016;2024-01-07T07:24:52;7.50;;;1.02;;
65717;SDS011;52445;52.466;-1.016;2024-01-07T07:27:21;1.85;;;1.23;;
65717;SDS011;52445;52.466;-1.016;2024-01-07T07:29:47;1.95;;;1.83;;
65717;SDS011;52445;52.466;-1.016;2024-01-07T07:32:17;3.25;;;1.17;;
65717;SDS011;52445;52.466;-1.016;2024-01-07T07:34:45;5.28;;;0.82;;
65717;SDS011;52445;52.466;-1.016;2024-01-07T07:37:13;6.18;;;1.55;;
65717;SDS011;52445;52.466;-1.016;2024-01-07T07:39:41;1.88;;;0.82;;
65717;SDS011;52445;52.466;-1.016;2024-01-07T07:42:09;1.23;;;0.52;;
65717;SDS011;52445;52.466;-1.016;2024-01-07T07:44:36;0.98;;;0.70;;
65717;SDS011;52445;52.466;-1.016;2024-01-07T07:47:05;0.70;;;0.30;;
65717;SDS011;52445;52.466;-1.016;2024-01-07T07:49:32;0.77;;;0.52;;
65717;SDS011;52445;52.466;-1.016;2024-01-07T07:51:58;1.48;;;0.50;;
65717;SDS011;52445;52.466;-1.016;2024-01-07T07:54:25;10.70;;;0.60;;
65717;SDS011;52445;52.466;-1.016;2024-01-07T07:56:52;1.83;;;0.38;;
65717;SDS011;52445;52.466;-1.016;2024-01-07T07:59:19;1.75;;;0.93;;
65717;SDS011;52445;52.466;-1.016;2024-01-07T08:01:45;1.95;;;0.60;;
65717;SDS011;52445;52.466;-1.016;2024-01-07T08:04:12;2.70;;;1.13;;
65717;SDS011;52445;52.466;-1.016;2024-01-07T08:06:39;2.28;;;0.65;;
65717;SDS011;52445;52.466;-1.016;2024-01-07T08:09:06;2.08;;;1.05;;
65717;SDS011;52445;52.466;-1.016;2024-01-07T08:11:33;3.30;;;0.90;;
65717;SDS011;52445;52.466;-1.016;2024-01-07T08:14:02;1.67;;;1.58;;
65717;SDS011;52445;52.466;-1.016;2024-01-07T08:16:29;1.35;;;1.25;;
65717;SDS011;52445;52.466;-1.016;2024-01-07T08:18:55;0.90;;;0.75;;
65717;SDS011;52445;52.466;-1.016;2024-01-07T08:21:23;1.20;;;0.55;;
65717;SDS011;52445;52.466;-1.016;2024-01-07T08:23:53;5.25;;;1.02;;
65717;SDS011;52445;52.466;-1.016;2024-01-07T08:26:20;1.25;;;0.77;;
65717;SDS011;52445;52.466;-1.016;2024-01-07T08:28:47;1.17;;;0.95;;
65717;SDS011;52445;52.466;-1.016;2024-01-07T08:31:13;0.82;;;0.50;;
65717;SDS011;52445;52.466;-1.016;2024-01-07T08:33:40;1.17;;;0.40;;
65717;SDS011;52445;52.466;-1.016;2024-01-07T08:36:07;6.88;;;1.17;;
65717;SDS011;52445;52.466;-1.016;2024-01-07T08:38:34;1.00;;;0.60;;
65717;SDS011;52445;52.466;-1.016;2024-01-07T08:41:01;2.05;;;0.80;;
65717;SDS011;52445;52.466;-1.016;2024-01-07T08:43:28;0.88;;;0.73;;
65717;SDS011;52445;52.466;-1.016;2024-01-07T08:45:56;1.45;;;0.82;;
65717;SDS011;52445;52.466;-1.016;2024-01-07T08:48:22;1.40;;;0.30;;
65717;SDS011;52445;52.466;-1.016;2024-01-07T08:50:49;4.25;;;1.85;;
65717;SDS011;52445;52.466;-1.016;2024-01-07T08:53:17;2.30;;;1.15;;
65717;SDS011;52445;52.466;-1.016;2024-01-07T08:55:45;1.83;;;0.43;;
65717;SDS011;52445;52.466;-1.016;2024-01-07T08:58:11;3.28;;;0.60;;
65717;SDS011;52445;52.466;-1.016;2024-01-07T09:00:38;2.35;;;0.73;;
65717;SDS011;52445;52.466;-1.016;2024-01-07T09:03:05;2.35;;;0.68;;
65717;SDS011;52445;52.466;-1.016;2024-01-07T09:05:33;5.10;;;1.75;;
65717;SDS011;52445;52.466;-1.016;2024-01-07T09:08:00;1.98;;;1.05;;
65717;SDS011;52445;52.466;-1.016;2024-01-07T09:10:30;1.65;;;1.20;;
65717;SDS011;52445;52.466;-1.016;2024-01-07T09:12:59;4.72;;;0.80;;
65717;SDS011;52445;52.466;-1.016;2024-01-07T09:15:26;1.83;;;0.95;;
65717;SDS011;52445;52.466;-1.016;2024-01-07T09:17:53;1.40;;;0.82;;
65717;SDS011;52445;52.466;-1.016;2024-01-07T09:20:20;0.82;;;0.63;;
65717;SDS011;52445;52.466;-1.016;2024-01-07T09:22:46;2.40;;;1.35;;
65717;SDS011;52445;52.466;-1.016;2024-01-07T09:25:14;1.20;;;0.90;;
65717;SDS011;52445;52.466;-1.016;2024-01-07T09:27:41;2.00;;;0.45;;
65717;SDS011;52445;52.466;-1.016;2024-01-07T09:30:10;2.28;;;1.20;;
65717;SDS011;52445;52.466;-1.016;2024-01-07T09:32:41;0.75;;;0.43;;
65717;SDS011;52445;52.466;-1.016;2024-01-07T09:35:08;3.13;;;0.98;;
65717;SDS011;52445;52.466;-1.016;2024-01-07T09:37:35;6.88;;;0.80;;
65717;SDS011;52445;52.466;-1.016;2024-01-07T09:40:02;0.40;;;0.40;;
65717;SDS011;52445;52.466;-1.016;2024-01-07T09:42:32;1.35;;;0.93;;
65717;SDS011;52445;52.466;-1.016;2024-01-07T09:45:01;1.27;;;0.80;;
65717;SDS011;52445;52.466;-1.016;2024-01-07T09:47:32;3.60;;;0.80;;
65717;SDS011;52445;52.466;-1.016;2024-01-07T09:50:01;3.28;;;0.85;;
65717;SDS011;52445;52.466;-1.016;2024-01-07T09:52:27;1.48;;;0.50;;
65717;SDS011;52445;52.466;-1.016;2024-01-07T09:54:57;0.38;;;0.35;;
65717;SDS011;52445;52.466;-1.016;2024-01-07T09:57:26;2.05;;;0.55;;
65717;SDS011;52445;52.466;-1.016;2024-01-07T09:59:55;0.93;;;0.40;;
65717;SDS011;52445;52.466;-1.016;2024-01-07T10:02:22;1.52;;;0.95;;
65717;SDS011;52445;52.466;-1.016;2024-01-07T10:04:51;1.30;;;0.63;;
65717;SDS011;52445;52.466;-1.016;2024-01-07T10:07:19;3.40;;;0.65;;
65717;SDS011;52445;52.466;-1.016;2024-01-07T10:09:45;2.67;;;0.60;;
65717;SDS011;52445;52.466;-1.016;2024-01-07T10:12:14;2.17;;;0.70;;
65717;SDS011;52445;52.466;-1.016;2024-01-07T10:14:41;2.15;;;0.52;;
65717;SDS011;52445;52.466;-1.016;2024-01-07T10:17:16;1.95;;;0.80;;
65717;SDS011;52445;52.466;-1.016;2024-01-07T10:19:44;2.83;;;2.63;;
65717;SDS011;52445;52.466;-1.016;2024-01-07T10:24:42;2.08;;;0.80;;
65717;SDS011;52445;52.466;-1.016;2024-01-07T10:27:10;1.92;;;0.45;;
65717;SDS011;52445;52.466;-1.016;2024-01-07T10:29:39;1.27;;;0.60;;
65717;SDS011;52445;52.466;-1.016;2024-01-07T10:32:07;2.40;;;1.15;;
65717;SDS011;52445;52.466;-1.016;2024-01-07T10:34:42;2.10;;;0.50;;
65717;SDS011;52445;52.466;-1.016;2024-01-07T10:37:14;2.30;;;0.60;;
65717;SDS011;52445;52.466;-1.016;2024-01-07T10:39:41;3.17;;;0.60;;
65717;SDS011;52445;52.466;-1.016;2024-01-07T10:42:08;1.02;;;0.30;;
65717;SDS011;52445;52.466;-1.016;2024-01-07T10:44:36;1.48;;;0.52;;
65717;SDS011;52445;52.466;-1.016;2024-01-07T10:47:06;3.75;;;1.40;;
65717;SDS011;52445;52.466;-1.016;2024-01-07T10:49:35;2.10;;;0.70;;
65717;SDS011;52445;52.466;-1.016;2024-01-07T10:52:06;2.00;;;0.68;;
65717;SDS011;52445;52.466;-1.016;2024-01-07T10:54:43;0.98;;;0.43;;
65717;SDS011;52445;52.466;-1.016;2024-01-07T10:59:53;2.50;;;1.98;;
65717;SDS011;52445;52.466;-1.016;2024-01-07T11:02:22;4.32;;;1.70;;
65717;SDS011;52445;52.466;-1.016;2024-01-07T11:05:11;2.92;;;1.63;;
65717;SDS011;52445;52.466;-1.016;2024-01-07T11:07:44;2.08;;;1.98;;
65717;SDS011;52445;52.466;-1.016;2024-01-07T11:10:18;2.05;;;1.05;;
65717;SDS011;52445;52.466;-1.016;2024-01-07T11:13:00;1.45;;;1.35;;
65717;SDS011;52445;52.466;-1.016;2024-01-07T11:18:23;2.50;;;1.90;;
65717;SDS011;52445;52.466;-1.016;2024-01-07T11:20:58;0.70;;;0.50;;
65717;SDS011;52445;52.466;-1.016;2024-01-07T11:26:03;2.28;;;2.17;;
65717;SDS011;52445;52.466;-1.016;2024-01-07T11:31:20;2.38;;;2.03;;
65717;SDS011;52445;52.466;-1.016;2024-01-07T11:33:49;2.35;;;2.13;;
65717;SDS011;52445;52.466;-1.016;2024-01-07T11:36:17;2.58;;;1.85;;
65717;SDS011;52445;52.466;-1.016;2024-01-07T11:38:44;3.47;;;2.15;;
65717;SDS011;52445;52.466;-1.016;2024-01-07T11:41:18;4.70;;;0.80;;
65717;SDS011;52445;52.466;-1.016;2024-01-07T11:46:30;4.18;;;0.80;;
65717;SDS011;52445;52.466;-1.016;2024-01-07T11:48:58;1.58;;;0.68;;
65717;SDS011;52445;52.466;-1.016;2024-01-07T11:51:26;2.95;;;0.88;;
65717;SDS011;52445;52.466;-1.016;2024-01-07T11:53:55;3.10;;;0.85;;
65717;SDS011;52445;52.466;-1.016;2024-01-07T11:56:31;1.17;;;0.60;;
65717;SDS011;52445;52.466;-1.016;2024-01-07T11:58:58;0.95;;;0.80;;
65717;SDS011;52445;52.466;-1.016;2024-01-07T12:01:26;1.45;;;0.68;;
65717;SDS011;52445;52.466;-1.016;2024-01-07T12:03:53;1.02;;;0.40;;
65717;SDS011;52445;52.466;-1.016;2024-01-07T12:06:20;2.38;;;0.73;;
65717;SDS011;52445;52.466;-1.016;2024-01-07T12:08:48;3.15;;;0.82;;
65717;SDS011;52445;52.466;-1.016;2024-01-07T12:11:16;1.05;;;0.43;;
65717;SDS011;52445;52.466;-1.016;2024-01-07T12:13:43;1.85;;;1.02;;
65717;SDS011;52445;52.466;-1.016;2024-01-07T12:19:15;1.33;;;0.50;;
65717;SDS011;52445;52.466;-1.016;2024-01-07T12:21:42;1.08;;;0.98;;
65717;SDS011;52445;52.466;-1.016;2024-01-07T12:24:12;1.42;;;1.13;;
65717;SDS011;52445;52.466;-1.016;2024-01-07T12:26:40;0.52;;;0.43;;
65717;SDS011;52445;52.466;-1.016;2024-01-07T12:29:06;3.40;;;0.50;;
65717;SDS011;52445;52.466;-1.016;2024-01-07T12:31:33;2.15;;;0.95;;
65717;SDS011;52445;52.466;-1.016;2024-01-07T12:34:02;1.42;;;0.43;;
65717;SDS011;52445;52.466;-1.016;2024-01-07T12:36:29;3.72;;;1.02;;
65717;SDS011;52445;52.466;-1.016;2024-01-07T12:38:58;2.13;;;1.17;;
65717;SDS011;52445;52.466;-1.016;2024-01-07T12:41:25;2.30;;;0.85;;
65717;SDS011;52445;52.466;-1.016;2024-01-07T12:43:52;0.85;;;0.47;;
65717;SDS011;52445;52.466;-1.016;2024-01-07T12:46:18;1.33;;;0.82;;
65717;SDS011;52445;52.466;-1.016;2024-01-07T12:48:45;1.05;;;0.95;;
65717;SDS011;52445;52.466;-1.016;2024-01-07T12:51:12;2.42;;;1.38;;
65717;SDS011;52445;52.466;-1.016;2024-01-07T12:53:39;3.97;;;0.80;;
65717;SDS011;52445;52.466;-1.016;2024-01-07T12:56:06;7.47;;;1.25;;
65717;SDS011;52445;52.466;-1.016;2024-01-07T12:58:33;1.27;;;1.02;;
65717;SDS011;52445;52.466;-1.016;2024-01-07T13:00:59;1.55;;;0.85;;
65717;SDS011;52445;52.466;-1.016;2024-01-07T13:03:27;1.40;;;0.60;;
65717;SDS011;52445;52.466;-1.016;2024-01-07T13:05:54;2.42;;;0.57;;
65717;SDS011;52445;52.466;-1.016;2024-01-07T13:08:23;0.93;;;0.70;;
65717;SDS011;52445;52.466;-1.016;2024-01-07T13:10:52;2.85;;;0.63;;
65717;SDS011;52445;52.466;-1.016;2024-01-07T13:13:20;0.80;;;0.50;;
65717;SDS011;52445;52.466;-1.016;2024-01-07T13:15:49;1.27;;;0.40;;
65717;SDS011;52445;52.466;-1.016;2024-01-07T13:18:17;2.00;;;0.88;;
65717;SDS011;52445;52.466;-1.016;2024-01-07T13:20:45;0.93;;;0.65;;
65717;SDS011;52445;52.466;-1.016;2024-01-07T13:23:12;1.00;;;0.52;;
65717;SDS011;52445;52.466;-1.016;2024-01-07T13:25:39;1.20;;;0.65;;
65717;SDS011;52445;52.466;-1.016;2024-01-07T13:28:06;2.22;;;0.77;;
65717;SDS011;52445;52.466;-1.016;2024-01-07T13:30:37;2.03;;;0.93;;
65717;SDS011;52445;52.466;-1.016;2024-01-07T13:33:05;4.53;;;0.85;;
65717;SDS011;52445;52.466;-1.016;2024-01-07T13:35:34;2.88;;;0.82;;
65717;SDS011;52445;52.466;-1.016;2024-01-07T13:38:01;1.30;;;0.68;;
65717;SDS011;52445;52.466;-1.016;2024-01-07T13:40:28;1.48;;;0.50;;
65717;SDS011;52445;52.466;-1.016;2024-01-07T13:42:55;1.83;;;0.95;;
65717;SDS011;52445;52.466;-1.016;2024-01-07T13:45:22;1.05;;;0.68;;
65717;SDS011;52445;52.466;-1.016;2024-01-07T13:47:50;7.78;;;0.80;;
65717;SDS011;52445;52.466;-1.016;2024-01-07T13:50:17;0.73;;;0.40;;
65717;SDS011;52445;52.466;-1.016;2024-01-07T13:52:44;2.95;;;0.30;;
65717;SDS011;52445;52.466;-1.016;2024-01-07T13:55:12;3.92;;;0.73;;
65717;SDS011;52445;52.466;-1.016;2024-01-07T13:57:40;1.25;;;0.70;;
65717;SDS011;52445;52.466;-1.016;2024-01-07T14:00:08;0.93;;;0.63;;
65717;SDS011;52445;52.466;-1.016;2024-01-07T14:02:37;1.20;;;0.50;;
65717;SDS011;52445;52.466;-1.016;2024-01-07T14:05:05;5.13;;;0.70;;
65717;SDS011;52445;52.466;-1.016;2024-01-07T14:07:35;3.45;;;1.13;;
65717;SDS011;52445;52.466;-1.016;2024-01-07T14:10:02;1.95;;;0.73;;
65717;SDS011;52445;52.466;-1.016;2024-01-07T14:12:32;1.73;;;0.63;;
65717;SDS011;52445;52.466;-1.016;2024-01-07T14:15:00;12.77;;;3.28;;
65717;SDS011;52445;52.466;-1.016;2024-01-07T14:17:27;10.20;;;2.92;;
65717;SDS011;52445;52.466;-1.016;2024-01-07T14:19:53;3.28;;;1.70;;
65717;SDS011;52445;52.466;-1.016;2024-01-07T14:22:20;2.42;;;1.35;;
65717;SDS011;52445;52.466;-1.016;2024-01-07T14:24:48;2.20;;;1.85;;
65717;SDS011;52445;52.466;-1.016;2024-01-07T14:27:15;6.18;;;3.00;;
65717;SDS011;52445;52.466;-1.016;2024-01-07T14:29:42;5.47;;;3.25;;
65717;SDS011;52445;52.466;-1.016;2024-01-07T14:32:10;1.80;;;1.45;;
65717;SDS011;52445;52.466;-1.016;2024-01-07T14:34:38;4.38;;;1.58;;
65717;SDS011;52445;52.466;-1.016;2024-01-07T14:37:08;7.13;;;2.20;;
65717;SDS011;52445;52.466;-1.016;2024-01-07T14:39:37;3.47;;;1.25;;
65717;SDS011;52445;52.466;-1.016;2024-01-07T14:42:04;2.65;;;1.50;;
65717;SDS011;52445;52.466;-1.016;2024-01-07T14:44:31;13.30;;;1.65;;
65717;SDS011;52445;52.466;-1.016;2024-01-07T14:47:13;4.40;;;1.10;;
65717;SDS011;52445;52.466;-1.016;2024-01-07T14:49:42;2.25;;;1.23;;
65717;SDS011;52445;52.466;-1.016;2024-01-07T14:52:09;0.88;;;0.68;;
65717;SDS011;52445;52.466;-1.016;2024-01-07T14:54:36;3.15;;;2.20;;